createdAt,value
2023-02-06T00:17:12.808Z,94252.00
2023-02-06T00:25:13.037Z,94248.00
2023-02-06T00:26:13.042Z,94244.00
2023-02-06T00:27:13.047Z,94242.00
2023-02-06T00:28:13.062Z,94244.00
2023-02-06T00:29:13.082Z,94246.00
2023-02-06T00:30:13.155Z,94244.00
2023-02-06T00:31:13.199Z,94246.00
2023-02-06T00:32:13.131Z,94248.00
2023-02-06T00:33:13.136Z,94246.00
2023-02-06T00:34:13.150Z,94246.00
2023-02-06T00:35:13.168Z,94246.00
2023-02-06T00:36:13.201Z,94246.00
2023-02-06T00:37:13.213Z,94246.00
2023-02-06T00:38:13.223Z,94246.00
2023-02-06T00:39:13.257Z,94248.00
2023-02-06T00:40:13.407Z,94250.00
2023-02-06T01:57:18.769Z,94262.00
2023-02-06T02:02:18.236Z,94260.00
2023-02-06T02:03:18.216Z,94256.00
2023-02-06T02:04:18.294Z,94254.00
2023-02-06T02:05:18.395Z,94254.00
2023-02-06T02:06:18.469Z,94252.00
2023-02-06T02:07:18.529Z,94250.00
2023-02-06T02:08:19.273Z,94252.00
2023-02-06T02:09:18.675Z,94248.00
2023-02-06T02:10:18.739Z,94250.00
2023-02-06T04:35:28.125Z,94270.00
2023-02-06T04:36:28.192Z,94270.00
2023-02-06T04:37:28.256Z,94272.00
2023-02-06T04:38:28.332Z,94270.00
2023-02-06T04:39:28.356Z,94272.00
2023-02-06T04:40:28.832Z,94272.00
2023-02-06T04:41:28.484Z,94272.00
2023-02-06T04:42:28.540Z,94268.00
2023-02-06T04:43:28.610Z,94270.00
2023-02-06T04:44:28.678Z,94272.00
2023-02-06T04:45:28.742Z,94276.00
2023-02-06T04:46:28.858Z,94276.00
2023-02-06T04:47:28.861Z,94276.00
2023-02-06T04:48:28.920Z,94276.00
2023-02-06T04:49:28.979Z,94274.00
2023-02-06T04:50:29.045Z,94268.00
2023-02-06T04:51:29.106Z,94268.00
2023-02-06T04:52:29.239Z,94266.00
2023-02-06T04:53:29.232Z,94264.00
2023-02-06T04:54:31.246Z,94266.00
2023-02-06T04:55:29.290Z,94268.00
2023-02-06T04:56:29.295Z,94270.00
2023-02-06T04:57:29.303Z,94272.00
2023-02-06T04:58:29.302Z,94270.00
2023-02-06T04:59:29.301Z,94270.00
2023-02-06T05:00:29.309Z,94270.00
2023-02-06T05:01:29.437Z,94268.00
2023-02-06T05:02:29.391Z,94276.00
2023-02-06T05:03:29.328Z,94274.00
2023-02-06T05:04:29.329Z,94278.00
2023-02-06T05:05:29.337Z,94278.00
2023-02-06T05:06:29.333Z,94276.00
2023-02-06T05:07:29.330Z,94280.00
2023-02-06T05:08:29.334Z,94282.00
2023-02-06T05:09:29.338Z,94284.00
2023-02-06T05:10:29.358Z,94284.00
2023-02-06T05:11:29.366Z,94282.00
2023-02-06T05:12:29.366Z,94278.00
2023-02-06T05:13:29.377Z,94278.00
2023-02-06T05:14:29.378Z,94276.00
2023-02-06T05:15:29.835Z,94276.00
2023-02-06T05:16:29.416Z,94274.00
2023-02-06T10:15:39.489Z,94199.00
2023-02-06T10:49:38.533Z,94143.00
2023-02-06T11:31:38.309Z,94019.00
2023-02-06T15:14:38.109Z,93727.00
2023-02-06T15:15:38.516Z,93727.00
2023-02-06T16:11:40.289Z,93713.00
2023-02-06T18:20:48.605Z,93884.00
2023-02-06T18:29:50.161Z,93864.00
2023-02-06T18:30:48.216Z,93853.00
2023-02-06T18:31:48.320Z,93851.00
2023-02-06T18:32:48.323Z,93851.00
2023-02-06T18:33:48.380Z,93860.00
2023-02-06T18:34:48.429Z,93853.00
2023-02-06T18:35:48.473Z,93853.00
2023-02-06T18:36:48.536Z,93872.00
2023-02-06T18:37:48.583Z,93864.00
2023-02-06T18:38:48.639Z,93866.00
2023-02-06T18:39:48.694Z,93860.00
2023-02-06T18:40:48.769Z,93851.00
2023-02-06T18:41:48.806Z,93849.00
2023-02-06T18:42:48.880Z,93851.00
2023-02-06T18:43:48.955Z,93841.00
2023-02-06T18:44:48.990Z,93841.00
2023-02-06T18:45:49.611Z,93841.00
2023-02-06T18:46:49.175Z,93835.00
2023-02-06T18:47:49.171Z,93835.00
2023-02-06T18:48:49.258Z,93837.00
2023-02-06T18:49:49.295Z,93843.00
2023-02-06T18:50:49.356Z,93839.00
2023-02-06T18:51:49.407Z,93839.00
2023-02-06T18:52:49.468Z,93841.00
2023-02-06T18:53:49.550Z,93845.00
2023-02-06T18:54:49.609Z,93847.00
2023-02-06T18:55:49.694Z,93843.00
2023-02-06T18:56:49.940Z,93841.00
2023-02-06T18:57:49.780Z,93847.00
2023-02-06T18:58:50.620Z,93847.00
2023-02-06T18:59:49.932Z,93845.00
2023-02-06T19:00:49.993Z,93849.00
2023-02-06T19:01:50.137Z,93845.00
2023-02-06T19:02:50.070Z,93847.00
2023-02-06T19:03:50.129Z,93845.00
2023-02-06T19:04:50.177Z,93843.00
2023-02-06T19:05:50.230Z,93851.00
2023-02-06T19:06:50.344Z,93845.00
2023-02-06T19:07:50.346Z,93847.00
2023-02-06T19:08:50.375Z,93851.00
2023-02-06T19:09:50.447Z,93847.00
2023-02-06T19:10:50.490Z,93851.00
2023-02-06T19:11:50.543Z,93849.00
2023-02-06T19:12:50.596Z,93849.00
2023-02-06T19:13:50.662Z,93851.00
2023-02-06T19:14:50.713Z,93853.00
2023-02-06T19:15:50.758Z,93862.00
2023-02-06T19:16:50.839Z,93851.00
2023-02-06T19:17:50.887Z,93864.00
2023-02-06T19:18:51.018Z,93851.00
2023-02-06T19:19:51.004Z,93851.00
2023-02-06T19:20:51.062Z,93851.00
2023-02-06T19:21:51.124Z,93847.00
2023-02-06T19:22:51.174Z,93847.00
2023-02-06T19:23:51.237Z,93845.00
2023-02-06T19:24:51.512Z,93849.00
2023-02-06T19:25:51.360Z,93849.00
2023-02-06T19:26:51.417Z,93853.00
2023-02-06T19:27:51.573Z,93849.00
2023-02-06T19:28:51.548Z,93860.00
2023-02-06T19:29:51.605Z,93860.00
2023-02-06T19:30:51.796Z,93851.00
2023-02-06T19:31:51.744Z,93853.00
2023-02-06T19:32:51.791Z,93864.00
2023-02-06T19:33:51.926Z,93868.00
2023-02-06T19:34:51.904Z,93864.00
2023-02-06T19:35:51.966Z,93866.00
2023-02-06T19:36:52.032Z,93870.00
2023-02-06T19:37:52.115Z,93870.00
2023-02-06T21:15:58.202Z,93988.00
2023-02-06T21:16:58.222Z,93990.00
2023-02-06T21:17:58.273Z,93990.00
2023-02-06T21:18:58.369Z,93988.00
2023-02-06T21:19:58.429Z,93990.00
2023-02-06T21:20:58.494Z,93984.00
2023-02-06T21:21:58.662Z,93984.00
2023-02-06T21:22:58.634Z,93986.00
2023-02-06T21:23:58.702Z,93992.00
2023-02-06T21:24:58.804Z,93990.00
2023-02-06T21:25:58.833Z,93996.00
2023-02-06T21:26:58.907Z,93992.00
2023-02-06T21:27:58.983Z,93992.00
2023-02-06T21:28:59.039Z,93992.00
2023-02-06T21:29:59.102Z,93992.00
2023-02-06T21:30:59.292Z,93988.00
2023-02-06T21:32:12.635Z,93988.00
2023-02-06T21:33:59.244Z,93986.00
2023-02-06T21:34:59.252Z,93982.00
2023-02-06T21:35:59.269Z,93978.00
2023-02-06T21:36:59.281Z,93976.00
2023-02-06T21:37:59.307Z,93978.00
2023-02-06T21:38:59.309Z,93976.00
2023-02-06T21:39:59.321Z,93972.00
2023-02-06T21:40:59.328Z,93974.00
2023-02-06T21:41:59.368Z,93968.00
2023-02-06T21:42:59.672Z,93968.00
2023-02-06T21:43:59.520Z,93966.00
2023-02-06T21:44:59.592Z,93972.00
2023-02-06T21:45:59.671Z,93976.00
2023-02-06T21:46:59.772Z,93980.00
2023-02-06T21:47:59.776Z,93982.00
2023-02-06T21:48:59.938Z,93988.00
2023-02-06T21:49:59.904Z,93988.00
2023-02-06T21:51:00.017Z,93990.00
2023-02-06T21:52:00.054Z,93994.00
2023-02-06T21:53:00.109Z,93998.00
2023-02-06T21:54:00.171Z,93998.00
2023-02-06T21:55:00.236Z,93998.00
2023-02-06T21:56:00.295Z,93996.00
2023-02-06T21:57:00.371Z,94000.00
2023-02-06T21:58:00.433Z,93996.00
2023-02-06T21:59:00.536Z,93996.00
2023-02-06T22:00:00.578Z,93996.00
2023-02-06T22:01:00.632Z,93996.00
2023-02-06T22:02:00.689Z,93996.00
2023-02-06T22:03:00.831Z,93994.00
2023-02-06T22:04:00.813Z,93992.00
2023-02-06T22:05:00.873Z,93990.00
2023-02-06T22:06:01.025Z,93988.00
2023-02-06T22:07:01.019Z,93992.00
2023-02-06T22:08:01.082Z,93992.00
2023-02-06T22:09:01.156Z,93988.00
2023-02-06T22:10:01.226Z,93990.00
2023-02-06T22:11:01.273Z,93990.00
2023-02-06T22:12:01.336Z,93996.00
2023-02-06T22:13:01.418Z,93994.00
2023-02-06T22:14:01.470Z,93994.00
2023-02-06T22:15:01.566Z,93990.00
2023-02-06T22:16:01.679Z,93992.00
2023-02-06T22:17:01.699Z,93992.00
2023-02-06T22:18:01.732Z,93996.00
2023-02-06T22:19:01.806Z,94003.00
2023-02-06T22:20:01.860Z,94005.00
2023-02-06T22:21:01.931Z,94005.00
2023-02-06T22:22:02.013Z,94007.00
2023-02-06T22:23:02.087Z,94001.00
2023-02-06T22:24:02.168Z,94000.00
2023-02-06T22:25:02.234Z,94000.00
2023-02-06T22:26:02.307Z,93996.00
2023-02-06T22:27:02.375Z,93998.00
2023-02-06T22:28:02.485Z,93992.00
2023-02-06T22:29:02.528Z,93994.00
2023-02-06T23:50:08.697Z,94098.00
2023-02-06T23:51:08.123Z,94096.00
2023-02-06T23:52:08.179Z,94098.00
2023-02-06T23:53:08.330Z,94100.00
2023-02-06T23:58:08.625Z,94105.00
2023-02-06T23:59:08.674Z,94109.00
